Time;durP1;ratioP1;P1;durP2;ratioP2;P2;SDS_P1;SDS_P2;PMS_P1;PMS_P2;Temp;Humidity;BMP_temperature;BMP_pressure;BME280_temperature;BME280_humidity;BME280_pressure;Samples;Min_cycle;Max_cycle;Signal;HPM_P1;HPM_P2
2021/10/22 00:00:01;;;;;;;1.50;1.00;;;11.60;73.20;;;;;;4915769;29;20377;-92
2021/10/22 00:02:27;;;;;;;2.30;1.05;;;11.60;73.20;;;;;;4900357;29;20055;-90
2021/10/22 00:04:53;;;;;;;2.35;1.00;;;11.50;73.10;;;;;;4906014;29;20043;-93
2021/10/22 00:07:19;;;;;;;2.78;1.10;;;11.60;73.20;;;;;;4888285;29;20078;-93
2021/10/22 00:09:46;;;;;;;2.05;1.17;;;11.50;73.10;;;;;;4870430;29;20036;-91
2021/10/22 00:12:11;;;;;;;2.05;1.10;;;11.50;73.20;;;;;;4909448;29;20036;-94
2021/10/22 00:14:38;;;;;;;2.05;1.20;;;11.50;73.10;;;;;;4901226;29;20156;-92
2021/10/22 00:17:04;;;;;;;2.03;1.13;;;11.50;73.10;;;;;;4916738;29;20114;-96
2021/10/22 00:19:33;;;;;;;1.65;1.00;;;11.50;73.10;;;;;;4895975;29;20040;-96
2021/10/22 00:22:02;;;;;;;1.65;0.98;;;11.50;73.20;;;;;;4917040;29;20024;-96
2021/10/22 00:24:27;;;;;;;1.98;1.05;;;11.50;73.10;;;;;;4901304;29;20111;-94
2021/10/22 00:26:55;;;;;;;2.42;1.10;;;11.50;73.10;;;;;;4885706;29;20055;-94
2021/10/22 00:29:20;;;;;;;1.30;1.02;;;11.50;73.10;;;;;;4916532;29;20032;-92
2021/10/22 00:31:46;;;;;;;1.83;1.13;;;11.50;73.10;;;;;;4916624;29;20054;-90
2021/10/22 00:34:12;;;;;;;1.23;0.80;;;11.50;73.10;;;;;;4916446;29;20028;-94
2021/10/22 00:36:38;;;;;;;1.67;0.90;;;11.50;73.80;;;;;;4898419;29;20040;-94
2021/10/22 00:39:05;;;;;;;2.60;1.20;;;11.50;73.20;;;;;;4915781;29;20028;-95
2021/10/22 00:41:32;;;;;;;0.98;0.90;;;11.50;73.20;;;;;;4916143;29;20016;-93
2021/10/22 00:43:58;;;;;;;2.00;1.00;;;11.40;73.10;;;;;;4898396;29;20478;-91
2021/10/22 00:46:27;;;;;;;1.67;1.05;;;11.50;73.20;;;;;;4916968;29;20031;-94
2021/10/22 00:48:54;;;;;;;1.60;1.20;;;11.40;73.10;;;;;;4916251;29;20537;-93
2021/10/22 00:51:20;;;;;;;2.00;1.10;;;11.40;73.10;;;;;;4900105;29;20036;-92
2021/10/22 00:53:46;;;;;;;1.73;1.20;;;11.40;73.10;;;;;;4900790;29;20210;-92
2021/10/22 00:56:12;;;;;;;1.50;1.00;;;11.40;73.10;;;;;;4915690;29;20185;-93
2021/10/22 00:58:41;;;;;;;1.67;1.00;;;11.40;73.10;;;;;;4916534;29;20032;-94
2021/10/22 01:01:08;;;;;;;2.97;1.17;;;11.40;73.20;;;;;;4897325;29;20024;-94
2021/10/22 01:03:34;;;;;;;2.30;1.00;;;11.40;73.10;;;;;;4898265;29;20548;-95
2021/10/22 01:06:01;;;;;;;2.67;1.10;;;11.40;73.20;;;;;;4890306;29;20056;-92
2021/10/22 01:08:30;;;;;;;1.27;1.00;;;11.40;73.10;;;;;;4908592;29;20119;-92
2021/10/22 01:10:57;;;;;;;3.03;1.00;;;11.40;73.10;;;;;;4916044;29;20180;-93
2021/10/22 01:13:23;;;;;;;1.52;1.00;;;11.40;73.10;;;;;;4916442;29;20051;-91
2021/10/22 01:15:49;;;;;;;2.55;1.17;;;11.40;73.10;;;;;;4900847;29;20617;-93
2021/10/22 01:18:16;;;;;;;1.80;1.05;;;11.40;73.10;;;;;;4906640;29;20047;-94
2021/10/22 01:20:42;;;;;;;1.80;1.05;;;11.40;73.10;;;;;;4921583;29;20110;-92
2021/10/22 01:23:08;;;;;;;1.35;0.90;;;11.40;73.10;;;;;;4901846;29;20119;-93
2021/10/22 01:25:34;;;;;;;2.67;1.10;;;11.40;73.10;;;;;;4917075;29;20119;-92
2021/10/22 01:28:00;;;;;;;1.05;0.90;;;11.30;73.10;;;;;;4900503;29;20036;-93
2021/10/22 01:30:28;;;;;;;2.60;1.23;;;11.40;73.10;;;;;;4898027;29;20036;-93
2021/10/22 01:33:04;;;;;;;1.48;1.00;;;11.30;73.10;;;;;;4919739;29;20477;-94
2021/10/22 01:35:30;;;;;;;1.23;1.10;;;11.30;73.10;;;;;;4904583;29;20036;-90
2021/10/22 01:37:56;;;;;;;1.50;1.10;;;11.30;73.10;;;;;;4905181;29;20036;-89
2021/10/22 01:40:23;;;;;;;2.05;1.00;;;11.30;73.10;;;;;;4920857;29;20039;-89
2021/10/22 01:42:49;;;;;;;2.83;1.20;;;11.30;73.00;;;;;;4920692;29;20039;-89
2021/10/22 01:45:16;;;;;;;3.03;1.23;;;11.30;73.00;;;;;;4906279;29;20032;-90
2021/10/22 01:47:42;;;;;;;2.38;1.23;;;11.30;73.00;;;;;;4920893;29;20028;-89
2021/10/22 01:50:08;;;;;;;1.13;1.00;;;11.30;73.00;;;;;;4921783;29;20036;-90
2021/10/22 01:52:35;;;;;;;3.95;1.40;;;11.30;73.00;;;;;;4908496;29;20028;-90
2021/10/22 01:55:01;;;;;;;1.55;1.05;;;11.30;73.00;;;;;;4922635;29;20127;-87
2021/10/22 01:57:27;;;;;;;2.20;1.25;;;11.30;73.00;;;;;;4905494;29;20036;-90
2021/10/22 01:59:53;;;;;;;3.08;1.20;;;11.20;73.00;;;;;;4920727;29;20039;-90
2021/10/22 02:02:19;;;;;;;1.70;1.10;;;11.20;73.00;;;;;;4888964;29;20032;-90
2021/10/22 02:04:45;;;;;;;1.77;1.10;;;11.20;73.00;;;;;;4920504;29;20036;-91
2021/10/22 02:07:11;;;;;;;1.83;1.20;;;11.20;73.00;;;;;;4904394;29;20082;-90
2021/10/22 02:09:37;;;;;;;2.25;1.00;;;11.20;73.00;;;;;;4920338;29;20474;-90
2021/10/22 02:12:04;;;;;;;1.48;1.10;;;11.20;73.00;;;;;;4920164;29;20028;-89
2021/10/22 02:14:30;;;;;;;1.23;0.95;;;11.20;73.00;;;;;;4904680;29;20044;-91
2021/10/22 02:16:55;;;;;;;1.65;1.10;;;11.20;72.90;;;;;;4904383;29;20032;-91
2021/10/22 02:19:24;;;;;;;1.75;1.05;;;11.20;73.00;;;;;;4920917;29;20086;-91
2021/10/22 02:21:49;;;;;;;2.05;1.10;;;11.10;72.90;;;;;;4904312;29;20036;-90
2021/10/22 02:24:15;;;;;;;1.73;1.00;;;11.10;72.90;;;;;;4904283;29;20032;-90
2021/10/22 02:26:41;;;;;;;1.75;1.05;;;11.10;72.90;;;;;;4919953;29;20020;-89
2021/10/22 02:29:07;;;;;;;1.63;1.15;;;11.10;72.90;;;;;;4920094;29;20032;-89
2021/10/22 02:31:33;;;;;;;2.10;1.30;;;11.10;72.90;;;;;;4889366;29;20024;-90
2021/10/22 02:33:59;;;;;;;1.55;0.98;;;11.10;72.90;;;;;;4920863;29;20033;-90
2021/10/22 02:36:25;;;;;;;1.45;1.08;;;11.10;72.90;;;;;;4919785;29;20024;-91
2021/10/22 02:38:51;;;;;;;1.20;1.00;;;11.10;72.90;;;;;;4920810;29;20034;-91
2021/10/22 02:41:17;;;;;;;2.75;1.15;;;11.10;72.90;;;;;;4903499;29;20058;-90
2021/10/22 02:43:45;;;;;;;1.08;0.90;;;11.10;72.90;;;;;;4920554;29;20036;-89
2021/10/22 02:46:11;;;;;;;1.60;1.10;;;11.10;72.90;;;;;;4888415;29;20034;-91
2021/10/22 02:48:37;;;;;;;2.58;1.30;;;11.10;72.90;;;;;;4904151;29;20036;-89
2021/10/22 02:51:02;;;;;;;2.05;1.27;;;11.00;72.80;;;;;;4919811;29;20031;-90
2021/10/22 02:53:28;;;;;;;2.28;1.23;;;11.00;72.80;;;;;;4920105;29;20429;-90
2021/10/22 02:55:54;;;;;;;2.05;1.38;;;11.00;72.80;;;;;;4904241;29;20051;-90
2021/10/22 02:58:20;;;;;;;2.13;1.30;;;11.00;72.80;;;;;;4920065;29;20180;-90
2021/10/22 03:00:48;;;;;;;1.25;1.10;;;11.00;72.80;;;;;;4903789;29;20035;-91
2021/10/22 03:03:17;;;;;;;2.65;1.17;;;11.00;72.80;;;;;;4903895;29;20040;-89
2021/10/22 03:05:43;;;;;;;1.67;1.17;;;11.00;72.80;;;;;;4918996;29;20114;-90
2021/10/22 03:08:09;;;;;;;1.95;1.30;;;11.00;72.80;;;;;;4920072;29;20170;-89
2021/10/22 03:10:35;;;;;;;1.63;1.20;;;11.00;72.80;;;;;;4919248;29;20040;-91
2021/10/22 03:13:01;;;;;;;2.53;1.10;;;11.00;72.80;;;;;;4919014;29;20017;-90
2021/10/22 03:15:29;;;;;;;1.10;1.00;;;11.00;72.80;;;;;;4919182;29;20067;-91
2021/10/22 03:17:55;;;;;;;1.10;1.00;;;10.90;72.80;;;;;;4919183;29;20032;-90
2021/10/22 03:20:21;;;;;;;3.17;1.35;;;10.90;72.80;;;;;;4903988;29;20096;-90
2021/10/22 03:22:47;;;;;;;2.05;1.17;;;10.90;72.80;;;;;;4918981;29;20029;-90
2021/10/22 03:25:13;;;;;;;1.80;1.20;;;10.90;72.70;;;;;;4903240;29;20032;-91
2021/10/22 03:27:41;;;;;;;1.33;1.00;;;10.90;72.80;;;;;;4902954;29;20040;-90
2021/10/22 03:30:07;;;;;;;2.38;1.40;;;10.90;72.80;;;;;;4904093;29;20051;-91
2021/10/22 03:32:34;;;;;;;2.20;1.30;;;10.90;72.80;;;;;;4919049;29;20028;-92
2021/10/22 03:35:04;;;;;;;1.52;1.10;;;10.90;72.80;;;;;;4918204;29;20024;-91
2021/10/22 03:37:30;;;;;;;2.20;1.20;;;10.90;72.80;;;;;;4918582;29;20390;-90
2021/10/22 03:39:56;;;;;;;1.33;0.98;;;10.90;72.80;;;;;;4888129;29;20032;-89
2021/10/22 03:42:22;;;;;;;2.30;1.20;;;10.90;72.80;;;;;;4918911;29;20035;-90
2021/10/22 03:44:49;;;;;;;2.35;1.30;;;10.80;72.70;;;;;;4918686;29;20492;-91
2021/10/22 03:47:15;;;;;;;2.40;1.33;;;10.80;72.70;;;;;;4919227;29;20028;-89
2021/10/22 03:49:41;;;;;;;2.78;1.20;;;10.80;72.70;;;;;;4902894;29;20035;-91
2021/10/22 03:52:07;;;;;;;2.13;1.20;;;10.80;72.70;;;;;;4918268;29;20429;-91
2021/10/22 03:54:32;;;;;;;1.55;1.20;;;10.80;72.80;;;;;;4921185;29;20035;-90
2021/10/22 03:56:58;;;;;;;3.13;1.40;;;10.80;72.70;;;;;;4902908;29;20060;-90
2021/10/22 03:59:24;;;;;;;2.83;1.50;;;10.80;72.70;;;;;;4902565;29;20036;-90
2021/10/22 04:01:50;;;;;;;3.42;1.40;;;10.80;72.70;;;;;;4902406;29;20036;-91
2021/10/22 04:04:17;;;;;;;1.85;1.40;;;10.80;72.70;;;;;;4918386;29;20596;-90
2021/10/22 04:06:42;;;;;;;3.17;1.65;;;10.80;73.40;;;;;;4902456;29;20051;-90
2021/10/22 04:09:09;;;;;;;4.03;1.65;;;10.80;72.70;;;;;;4902314;29;20393;-90
2021/10/22 04:11:35;;;;;;;2.65;1.35;;;10.70;72.70;;;;;;4918230;29;20039;-90
2021/10/22 04:14:04;;;;;;;2.63;1.42;;;10.80;72.70;;;;;;4902060;29;20040;-90
2021/10/22 04:16:30;;;;;;;1.77;1.25;;;10.70;72.70;;;;;;4918155;29;20032;-91
2021/10/22 04:18:56;;;;;;;2.30;1.38;;;10.70;72.60;;;;;;4917839;29;20040;-91
2021/10/22 04:21:21;;;;;;;3.10;1.55;;;10.70;72.60;;;;;;4886398;29;20068;-90
2021/10/22 04:23:47;;;;;;;2.55;1.48;;;10.70;72.60;;;;;;4902322;29;20044;-90
2021/10/22 04:26:13;;;;;;;3.55;1.70;;;10.70;72.60;;;;;;4918829;29;20025;-91
2021/10/22 04:28:39;;;;;;;2.50;1.58;;;10.70;72.60;;;;;;4918119;29;20111;-91
2021/10/22 04:31:05;;;;;;;3.30;1.63;;;10.70;72.70;;;;;;4918379;29;20024;-89
2021/10/22 04:33:31;;;;;;;2.40;1.65;;;10.70;72.70;;;;;;4918242;29;20500;-90
2021/10/22 04:35:57;;;;;;;2.08;1.42;;;10.70;72.70;;;;;;4918553;29;20032;-89
2021/10/22 04:40:52;;;;;;;4.65;1.73;;;10.70;72.70;;;;;;4902041;29;20024;-88
2021/10/22 04:43:19;;;;;;;2.70;1.65;;;10.70;72.80;;;;;;4917510;29;20501;-86
2021/10/22 04:45:49;;;;;;;3.10;1.83;;;10.70;72.80;;;;;;4901292;29;20103;-84
2021/10/22 04:48:16;;;;;;;2.22;1.45;;;10.60;72.80;;;;;;4917391;29;20070;-83
2021/10/22 04:50:49;;;;;;;2.60;1.67;;;10.70;72.80;;;;;;4917161;29;20036;-85
2021/10/22 04:53:16;;;;;;;2.08;1.67;;;10.60;72.80;;;;;;4902142;29;20088;-84
2021/10/22 04:55:42;;;;;;;4.38;1.63;;;10.60;72.70;;;;;;4900992;29;20028;-82
2021/10/22 04:58:09;;;;;;;3.05;1.70;;;10.60;72.70;;;;;;4917618;29;20044;-83
2021/10/22 05:00:35;;;;;;;2.92;1.65;;;10.60;72.70;;;;;;4901389;29;20119;-84
2021/10/22 05:03:01;;;;;;;2.55;1.60;;;10.60;72.80;;;;;;4916882;29;20043;-84
2021/10/22 05:05:27;;;;;;;3.20;1.55;;;10.60;72.80;;;;;;4916811;29;20032;-83
2021/10/22 05:07:53;;;;;;;3.47;1.50;;;10.60;72.80;;;;;;4901815;29;20066;-84
2021/10/22 05:10:19;;;;;;;2.15;1.55;;;10.60;72.80;;;;;;4918218;29;20044;-84
2021/10/22 05:12:45;;;;;;;4.10;2.03;;;10.60;72.80;;;;;;4902318;29;20032;-87
2021/10/22 05:15:12;;;;;;;5.70;1.70;;;10.60;72.80;;;;;;4922943;29;20040;-86
2021/10/22 05:17:38;;;;;;;2.47;1.60;;;10.60;72.80;;;;;;4919309;29;20046;-86
2021/10/22 05:20:07;;;;;;;3.88;1.90;;;10.60;72.80;;;;;;4918480;29;20024;-85
2021/10/22 05:22:34;;;;;;;3.58;1.73;;;10.60;72.80;;;;;;4918943;29;20036;-86
2021/10/22 05:25:00;;;;;;;3.10;1.80;;;10.60;73.50;;;;;;4917030;29;20043;-86
2021/10/22 05:27:26;;;;;;;3.55;1.65;;;10.60;72.90;;;;;;4885432;29;20040;-84
2021/10/22 05:29:52;;;;;;;4.47;1.80;;;10.60;72.90;;;;;;4901570;29;20032;-84
2021/10/22 05:32:17;;;;;;;1.83;1.48;;;10.60;72.90;;;;;;4901043;29;20036;-90
2021/10/22 05:34:43;;;;;;;3.03;1.73;;;10.60;72.90;;;;;;4916727;29;20148;-85
2021/10/22 05:37:09;;;;;;;3.22;1.95;;;10.60;72.90;;;;;;4916453;29;20032;-84
2021/10/22 05:39:35;;;;;;;3.78;1.90;;;10.60;72.90;;;;;;4916644;29;20111;-84
2021/10/22 05:42:01;;;;;;;2.85;1.90;;;10.60;72.90;;;;;;4901236;29;20032;-84
2021/10/22 05:44:26;;;;;;;3.85;1.80;;;10.60;72.90;;;;;;4901094;29;20091;-84
2021/10/22 05:46:54;;;;;;;3.03;1.75;;;10.60;72.90;;;;;;4916618;29;20474;-85
2021/10/22 05:49:21;;;;;;;3.42;1.52;;;10.60;73.00;;;;;;4916796;29;20487;-85
2021/10/22 05:51:47;;;;;;;2.80;1.65;;;10.60;73.00;;;;;;4916631;29;20032;-85
2021/10/22 05:54:13;;;;;;;3.15;1.65;;;10.60;73.00;;;;;;4916511;29;20470;-88
2021/10/22 05:56:39;;;;;;;3.47;2.30;;;10.60;73.00;;;;;;4916585;29;20050;-85
2021/10/22 05:59:05;;;;;;;3.25;1.80;;;10.60;73.00;;;;;;4886106;29;20099;-84
2021/10/22 06:01:31;;;;;;;2.28;1.55;;;10.60;73.00;;;;;;4900995;29;20035;-84
2021/10/22 06:03:57;;;;;;;2.55;1.52;;;10.60;73.00;;;;;;4916415;29;20035;-84
2021/10/22 06:06:23;;;;;;;2.83;1.65;;;10.60;73.00;;;;;;4916079;29;20553;-85
2021/10/22 06:08:49;;;;;;;2.13;1.40;;;10.60;73.00;;;;;;4900816;29;20028;-84
2021/10/22 06:11:15;;;;;;;4.75;1.70;;;10.60;73.00;;;;;;4901692;29;20032;-85
2021/10/22 06:13:41;;;;;;;2.42;1.30;;;10.60;73.00;;;;;;4916380;29;20169;-86
2021/10/22 06:16:09;;;;;;;2.72;1.73;;;10.60;73.00;;;;;;4916253;29;20035;-89
2021/10/22 06:18:38;;;;;;;2.00;1.42;;;10.60;73.10;;;;;;4919883;29;20032;-87
2021/10/22 06:21:07;;;;;;;3.38;1.40;;;10.60;73.10;;;;;;4919986;29;20032;-87
2021/10/22 06:26:18;;;;;;;2.45;1.50;;;10.60;73.10;;;;;;4920935;29;20488;-85
2021/10/22 06:28:44;;;;;;;3.53;1.60;;;10.60;73.00;;;;;;4919979;29;20032;-88
2021/10/22 06:31:12;;;;;;;2.20;1.50;;;10.60;73.10;;;;;;4920480;29;20031;-86
2021/10/22 06:33:38;;;;;;;2.72;1.50;;;10.60;73.10;;;;;;4903986;29;20127;-87
2021/10/22 06:36:06;;;;;;;2.83;1.60;;;10.60;73.20;;;;;;4919531;29;20035;-87
2021/10/22 06:38:32;;;;;;;2.67;1.48;;;10.60;73.10;;;;;;4919737;29;20036;-84
2021/10/22 06:40:57;;;;;;;2.63;1.42;;;10.60;73.10;;;;;;4919443;29;20445;-86
2021/10/22 06:43:24;;;;;;;3.38;1.65;;;10.70;73.20;;;;;;4888337;29;20492;-85
2021/10/22 06:45:51;;;;;;;2.70;1.42;;;10.60;73.20;;;;;;4903771;29;20377;-86
2021/10/22 06:48:17;;;;;;;2.17;1.25;;;10.60;73.20;;;;;;4919053;29;20032;-86
2021/10/22 06:50:44;;;;;;;2.75;1.60;;;10.70;73.20;;;;;;4919562;29;20051;-85
2021/10/22 06:53:11;;;;;;;3.20;1.70;;;10.70;73.20;;;;;;4919642;29;20115;-86
2021/10/22 06:55:38;;;;;;;1.65;1.30;;;10.70;73.90;;;;;;4919338;29;20036;-86
2021/10/22 06:58:05;;;;;;;2.80;1.50;;;10.70;73.30;;;;;;4919584;29;20043;-85
2021/10/22 07:00:31;;;;;;;2.38;1.60;;;10.70;73.30;;;;;;4918870;29;20020;-87
2021/10/22 07:02:57;;;;;;;2.85;1.50;;;10.70;73.30;;;;;;4919110;29;20032;-85
2021/10/22 07:08:08;;;;;;;2.42;1.48;;;10.70;73.30;;;;;;4919323;29;20138;-84
2021/10/22 07:10:34;;;;;;;2.05;1.50;;;10.70;73.30;;;;;;4918757;29;20076;-93
2021/10/22 07:13:01;;;;;;;2.88;1.48;;;10.70;73.30;;;;;;4919964;29;20024;-88
2021/10/22 07:15:28;;;;;;;2.53;1.73;;;10.70;73.40;;;;;;4919702;29;20088;-87
2021/10/22 07:17:56;;;;;;;2.65;1.60;;;10.70;74.00;;;;;;4919298;29;20032;-85
2021/10/22 07:20:23;;;;;;;1.88;1.42;;;10.70;73.40;;;;;;4918835;29;20488;-85
2021/10/22 07:22:54;;;;;;;2.55;1.60;;;10.80;73.40;;;;;;4918994;29;20028;-86
2021/10/22 07:25:23;;;;;;;3.58;1.60;;;10.80;73.40;;;;;;4919589;29;20091;-86
2021/10/22 07:27:50;;;;;;;1.95;1.20;;;10.70;73.40;;;;;;4918614;29;20056;-87
2021/10/22 07:30:17;;;;;;;2.75;1.58;;;10.80;73.50;;;;;;4918154;29;20063;-87
2021/10/22 07:32:46;;;;;;;2.35;1.50;;;10.80;73.40;;;;;;4903078;29;20469;-85
2021/10/22 07:35:13;;;;;;;4.50;1.73;;;10.80;73.50;;;;;;4918794;29;20028;-86
2021/10/22 07:37:39;;;;;;;2.20;1.70;;;10.80;73.40;;;;;;4918773;29;20378;-87
2021/10/22 07:40:06;;;;;;;4.75;2.30;;;10.80;73.50;;;;;;4902751;29;20044;-86
2021/10/22 07:42:33;;;;;;;2.40;1.60;;;10.80;73.50;;;;;;4902676;29;20123;-86
2021/10/22 07:45:03;;;;;;;2.28;1.55;;;10.80;73.40;;;;;;4919071;29;20204;-86
2021/10/22 07:47:33;;;;;;;3.42;1.67;;;10.80;73.50;;;;;;4918609;29;20032;-86
2021/10/22 07:49:59;;;;;;;2.63;1.52;;;10.80;73.50;;;;;;4918088;29;20036;-84
2021/10/22 07:52:27;;;;;;;2.50;1.50;;;10.90;73.50;;;;;;4918002;29;20036;-85
2021/10/22 07:54:54;;;;;;;1.88;1.50;;;10.80;73.50;;;;;;4918002;29;20496;-86
2021/10/22 07:57:23;;;;;;;3.58;1.75;;;10.90;73.50;;;;;;4902531;29;20040;-85
2021/10/22 07:59:49;;;;;;;1.67;1.58;;;10.90;73.50;;;;;;4902477;29;20071;-86
2021/10/22 08:02:16;;;;;;;4.22;1.80;;;10.80;73.50;;;;;;4919341;29;20043;-85
2021/10/22 08:04:44;;;;;;;3.00;1.60;;;10.90;73.50;;;;;;4917925;29;20032;-85
2021/10/22 08:07:13;;;;;;;3.33;1.50;;;10.90;73.60;;;;;;4902325;29;20064;-85
2021/10/22 08:09:41;;;;;;;2.53;1.48;;;10.90;73.60;;;;;;4902635;29;20032;-87
2021/10/22 08:12:07;;;;;;;2.92;1.50;;;10.90;73.60;;;;;;4917846;29;20036;-87
2021/10/22 08:14:33;;;;;;;2.33;1.45;;;10.90;73.60;;;;;;4917908;29;20052;-87
2021/10/22 08:17:00;;;;;;;3.25;1.65;;;10.90;73.60;;;;;;4902582;29;20036;-86
2021/10/22 08:19:26;;;;;;;3.05;1.70;;;11.00;73.60;;;;;;4917939;29;20122;-86
2021/10/22 08:22:25;;;;;;;2.65;1.42;;;11.00;73.70;;;;;;4901655;29;20032;-86
2021/10/22 08:24:40;;;;;;;2.60;1.40;;;11.00;73.70;;;;;;4917803;29;20040;-88
2021/10/22 08:27:07;;;;;;;2.60;1.65;;;11.00;73.60;;;;;;4918305;29;20101;-86
2021/10/22 08:29:33;;;;;;;3.97;1.75;;;11.00;73.60;;;;;;4886717;29;20037;-87
2021/10/22 08:32:00;;;;;;;2.72;1.50;;;11.00;73.70;;;;;;4918593;29;20020;-86
2021/10/22 08:34:27;;;;;;;2.95;1.70;;;11.00;73.70;;;;;;4902252;29;20044;-86
2021/10/22 08:36:54;;;;;;;2.13;1.60;;;11.00;73.70;;;;;;4901862;29;20043;-87
2021/10/22 08:39:20;;;;;;;2.20;1.17;;;11.10;73.80;;;;;;4917176;29;20027;-86
2021/10/22 08:41:47;;;;;;;2.28;1.60;;;11.10;73.80;;;;;;4917547;29;20421;-86
2021/10/22 08:44:14;;;;;;;3.53;1.90;;;11.10;73.80;;;;;;4917390;29;20076;-86
2021/10/22 08:46:45;;;;;;;2.70;1.80;;;11.10;73.80;;;;;;4917380;29;20044;-86
2021/10/22 08:49:13;;;;;;;2.80;1.50;;;11.10;73.80;;;;;;4917571;29;20367;-85
2021/10/22 08:51:39;;;;;;;2.25;1.40;;;11.20;73.80;;;;;;4917529;29;20060;-86
2021/10/22 08:54:06;;;;;;;2.75;1.52;;;11.10;73.80;;;;;;4917250;29;20028;-84
2021/10/22 08:56:31;;;;;;;2.72;1.40;;;11.20;73.80;;;;;;4916809;29;20024;-79
2021/10/22 08:58:57;;;;;;;3.78;1.58;;;11.20;73.80;;;;;;4916703;29;20496;-85
2021/10/22 09:01:23;;;;;;;2.72;1.55;;;11.20;73.80;;;;;;4917242;29;20032;-86
2021/10/22 09:03:49;;;;;;;2.55;1.70;;;11.20;73.80;;;;;;4885797;29;20083;-88
2021/10/22 09:06:16;;;;;;;2.60;1.63;;;11.30;73.80;;;;;;4917079;29;20539;-84
2021/10/22 09:08:45;;;;;;;1.95;1.50;;;11.30;73.80;;;;;;4901434;29;20050;-85
2021/10/22 09:11:23;;;;;;;2.65;1.50;;;11.30;73.80;;;;;;4917120;29;20470;-85
2021/10/22 09:14:03;;;;;;;1.95;1.30;;;11.30;73.90;;;;;;4917826;29;20035;-84
2021/10/22 09:16:30;;;;;;;2.13;1.30;;;11.40;73.90;;;;;;4916841;29;20512;-86
2021/10/22 09:18:56;;;;;;;3.47;1.38;;;11.40;73.90;;;;;;4917148;29;20029;-86
2021/10/22 09:21:30;;;;;;;2.72;1.40;;;11.40;73.90;;;;;;4902004;29;20028;-85
2021/10/22 09:24:18;;;;;;;2.65;1.35;;;11.40;73.90;;;;;;4917181;29;20032;-85
2021/10/22 09:26:55;;;;;;;2.47;1.30;;;11.40;74.00;;;;;;4918087;29;20036;-86
2021/10/22 09:29:28;;;;;;;2.85;1.50;;;11.50;73.90;;;;;;4917528;29;20480;-85
2021/10/22 09:31:57;;;;;;;2.40;1.17;;;11.50;73.90;;;;;;4917146;29;20039;-86
2021/10/22 09:34:37;;;;;;;3.03;1.50;;;11.50;74.00;;;;;;4917100;29;20028;-86
2021/10/22 09:37:09;;;;;;;2.55;1.30;;;11.50;74.00;;;;;;4917008;29;20036;-86
2021/10/22 09:39:36;;;;;;;2.58;1.60;;;11.60;74.00;;;;;;4917013;29;20039;-93
2021/10/22 09:42:03;;;;;;;1.67;1.10;;;11.60;74.60;;;;;;4916457;29;20144;-86
2021/10/22 09:44:41;;;;;;;1.52;1.27;;;11.60;73.90;;;;;;4916825;29;20064;-85
2021/10/22 09:47:07;;;;;;;2.28;1.42;;;11.60;73.90;;;;;;4916420;29;20048;-84
2021/10/22 09:49:35;;;;;;;3.22;1.20;;;11.70;74.00;;;;;;4916361;29;20024;-87
2021/10/22 09:52:03;;;;;;;3.80;1.58;;;11.70;73.90;;;;;;4917657;29;20079;-88
2021/10/22 09:54:31;;;;;;;2.33;1.35;;;11.70;73.90;;;;;;4919787;29;20064;-82
2021/10/22 09:57:04;;;;;;;1.85;1.13;;;11.70;74.00;;;;;;4904780;29;20055;-84
2021/10/22 09:59:30;;;;;;;2.50;1.30;;;11.70;74.00;;;;;;4919884;29;20115;-81
2021/10/22 10:01:58;;;;;;;2.67;1.20;;;11.80;74.00;;;;;;4919561;29;20111;-80
2021/10/22 10:04:25;;;;;;;2.22;1.40;;;11.80;74.00;;;;;;4919525;29;20446;-83
2021/10/22 10:06:52;;;;;;;3.53;1.40;;;11.80;73.90;;;;;;4919367;29;20413;-82
2021/10/22 10:09:20;;;;;;;1.85;1.40;;;11.80;73.90;;;;;;4920556;29;20043;-80
2021/10/22 10:11:48;;;;;;;2.60;1.33;;;11.90;73.90;;;;;;4920418;29;20075;-82
2021/10/22 10:14:15;;;;;;;2.85;1.33;;;11.90;74.00;;;;;;4920129;29;20064;-80
2021/10/22 10:16:48;;;;;;;2.78;1.30;;;11.90;73.90;;;;;;4903403;29;20067;-80
2021/10/22 10:19:31;;;;;;;2.75;1.63;;;12.00;74.00;;;;;;4903517;29;20127;-81
2021/10/22 10:22:27;;;;;;;1.52;1.30;;;12.00;74.70;;;;;;4919236;29;20032;-81
2021/10/22 10:24:59;;;;;;;1.17;1.08;;;12.00;74.10;;;;;;4917921;29;20059;-82
2021/10/22 10:27:25;;;;;;;3.28;1.23;;;12.00;73.90;;;;;;4919653;29;20032;-83
2021/10/22 10:29:58;;;;;;;2.28;1.20;;;12.10;73.90;;;;;;4903252;29;20123;-83
2021/10/22 10:32:27;;;;;;;1.55;1.27;;;12.00;73.90;;;;;;4919827;29;20024;-81
2021/10/22 10:35:11;;;;;;;1.40;1.02;;;12.10;73.90;;;;;;4918864;29;20091;-83
2021/10/22 10:37:39;;;;;;;2.00;1.17;;;12.10;74.00;;;;;;4919499;29;20055;-84
2021/10/22 10:40:05;;;;;;;3.20;1.48;;;12.10;73.90;;;;;;4919057;29;20096;-85
2021/10/22 10:42:46;;;;;;;3.42;1.50;;;12.10;73.90;;;;;;4919812;29;20032;-84
2021/10/22 10:45:21;;;;;;;2.83;1.23;;;12.20;74.00;;;;;;4919215;29;20389;-84
2021/10/22 10:47:56;;;;;;;1.52;1.17;;;12.20;74.00;;;;;;4919153;29;20087;-83
2021/10/22 10:50:24;;;;;;;1.92;1.17;;;12.20;74.00;;;;;;4903984;29;20055;-84
2021/10/22 10:52:51;;;;;;;2.53;1.27;;;12.20;73.90;;;;;;4887482;29;20525;-84
2021/10/22 10:55:43;;;;;;;1.85;1.20;;;12.20;73.90;;;;;;4919749;29;20071;-84
2021/10/22 10:58:09;;;;;;;1.10;1.00;;;12.20;74.10;;;;;;4920160;29;20039;-84
2021/10/22 11:00:41;;;;;;;1.83;1.20;;;12.30;73.90;;;;;;4919012;29;20032;-85
2021/10/22 11:03:17;;;;;;;2.85;1.17;;;12.30;74.00;;;;;;4918479;29;20035;-84
2021/10/22 11:05:55;;;;;;;1.98;1.00;;;12.30;73.90;;;;;;4918495;29;20520;-84
2021/10/22 11:08:25;;;;;;;1.83;1.20;;;12.30;73.90;;;;;;4919095;29;20044;-83
2021/10/22 11:11:15;;;;;;;1.80;1.10;;;12.30;73.90;;;;;;4918759;29;20035;-85
2021/10/22 11:13:48;;;;;;;1.25;1.10;;;12.40;74.00;;;;;;4918986;29;20088;-84
2021/10/22 11:16:43;;;;;;;1.88;1.10;;;12.30;73.90;;;;;;4918646;29;20040;-84
2021/10/22 11:19:33;;;;;;;1.60;1.02;;;12.40;74.00;;;;;;4917764;29;20565;-83
2021/10/22 11:22:02;;;;;;;1.92;1.10;;;12.40;74.10;;;;;;4918744;29;20115;-84
2021/10/22 11:24:33;;;;;;;2.90;1.08;;;12.40;73.90;;;;;;4919740;29;20059;-85
2021/10/22 11:27:18;;;;;;;1.60;1.00;;;12.40;74.00;;;;;;4918676;29;20040;-87
2021/10/22 11:29:49;;;;;;;1.77;1.20;;;12.40;74.00;;;;;;4919469;29;20461;-81
2021/10/22 11:32:25;;;;;;;1.90;1.13;;;12.50;74.00;;;;;;4917804;29;20039;-79
2021/10/22 11:34:56;;;;;;;1.83;1.00;;;12.50;74.00;;;;;;4917366;29;20032;-81
2021/10/22 11:37:25;;;;;;;1.77;1.00;;;12.50;74.00;;;;;;4917354;29;20050;-80
2021/10/22 11:39:55;;;;;;;1.70;1.40;;;12.50;74.00;;;;;;4917442;29;20029;-81
2021/10/22 11:42:27;;;;;;;2.60;1.42;;;12.50;74.00;;;;;;4917597;29;20055;-82
2021/10/22 11:45:09;;;;;;;3.38;1.15;;;12.50;74.00;;;;;;4917278;29;20056;-81
2021/10/22 11:48:02;;;;;;;1.10;0.90;;;12.60;74.10;;;;;;4918909;29;20036;-81
2021/10/22 11:50:32;;;;;;;2.55;1.00;;;12.60;74.00;;;;;;4917128;29;20503;-82
2021/10/22 11:53:05;;;;;;;1.38;0.82;;;12.60;74.00;;;;;;4917309;29;20032;-82
2021/10/22 11:55:31;;;;;;;1.25;0.90;;;12.60;74.00;;;;;;4902892;29;20051;-83
2021/10/22 11:58:11;;;;;;;1.33;1.10;;;12.60;74.00;;;;;;4887567;29;20032;-83
2021/10/22 12:00:47;;;;;;;2.10;1.05;;;12.70;74.10;;;;;;4918553;29;20450;-83
2021/10/22 12:03:13;;;;;;;1.77;1.10;;;12.70;74.00;;;;;;4918674;29;20361;-83
2021/10/22 12:05:43;;;;;;;1.63;1.00;;;12.70;74.00;;;;;;4917323;29;20028;-82
2021/10/22 12:08:19;;;;;;;1.52;0.90;;;12.80;74.10;;;;;;4917649;29;20028;-82
2021/10/22 12:10:55;;;;;;;1.45;0.93;;;12.80;74.10;;;;;;4901760;29;20059;-82
2021/10/22 12:13:28;;;;;;;1.70;0.93;;;12.80;74.10;;;;;;4887156;29;20071;-82
2021/10/22 12:15:54;;;;;;;1.50;1.00;;;12.90;74.10;;;;;;4902205;29;20036;-82
2021/10/22 12:18:21;;;;;;;3.15;1.30;;;12.90;74.00;;;;;;4901611;29;20032;-82
2021/10/22 12:20:47;;;;;;;2.00;1.05;;;12.90;74.00;;;;;;4917399;29;20039;-84
2021/10/22 12:23:13;;;;;;;1.75;1.20;;;12.90;74.00;;;;;;4918592;29;20028;-84
2021/10/22 12:25:42;;;;;;;3.13;1.00;;;12.90;73.90;;;;;;4917525;29;20036;-84
2021/10/22 12:28:16;;;;;;;2.58;1.10;;;13.00;74.00;;;;;;4917949;29;20463;-82
2021/10/22 12:30:44;;;;;;;2.78;1.23;;;13.00;74.00;;;;;;4916988;29;20036;-82
2021/10/22 12:33:11;;;;;;;2.33;1.10;;;13.10;73.90;;;;;;4917103;29;20481;-81
2021/10/22 12:35:41;;;;;;;1.42;0.90;;;13.10;73.90;;;;;;4917171;29;20032;-82
2021/10/22 12:38:11;;;;;;;3.08;1.00;;;13.10;73.90;;;;;;4917018;29;20048;-85
2021/10/22 12:40:44;;;;;;;1.73;1.23;;;13.10;73.90;;;;;;4917065;29;20388;-83
2021/10/22 12:43:16;;;;;;;1.75;0.90;;;13.20;73.90;;;;;;4901139;29;20028;-83
2021/10/22 12:46:04;;;;;;;2.45;1.10;;;13.20;73.80;;;;;;4917274;29;20039;-83
2021/10/22 12:48:43;;;;;;;4.05;1.17;;;13.20;73.90;;;;;;4917559;29;20036;-83
2021/10/22 12:51:15;;;;;;;1.45;0.95;;;13.20;73.80;;;;;;4917042;29;20036;-83
2021/10/22 12:53:47;;;;;;;1.85;1.00;;;13.30;73.80;;;;;;4916986;29;20070;-82
2021/10/22 12:56:23;;;;;;;3.25;1.23;;;13.30;73.80;;;;;;4916710;29;20369;-82
2021/10/22 12:59:02;;;;;;;1.50;0.93;;;13.40;73.80;;;;;;4902035;29;20195;-82
2021/10/22 13:01:32;;;;;;;1.55;1.10;;;13.40;73.80;;;;;;4916490;29;20033;-84